Time;durP1;ratioP1;P1;durP2;ratioP2;P2;SDS_P1;SDS_P2;PMS_P1;PMS_P2;Temp;Humidity;BMP_temperature;BMP_pressure;BME280_temperature;BME280_humidity;BME280_pressure;Samples;Min_cycle;Max_cycle;Signal;HPM_P1;HPM_P2
2022/08/03 00:01:33;;;;;;;4.15;2.25;;;19.60;99.90;;;;;;5042026;28;20489;-61
2022/08/03 00:03:58;;;;;;;6.22;2.50;;;19.60;99.90;;;;;;5040049;28;20087;-62
2022/08/03 00:06:24;;;;;;;6.95;2.15;;;19.60;99.90;;;;;;5041490;28;20048;-64
2022/08/03 00:08:50;;;;;;;9.40;2.33;;;19.60;99.90;;;;;;5041046;28;20041;-61
2022/08/03 00:11:16;;;;;;;4.25;2.15;;;18.70;99.90;;;;;;5042304;28;20099;-62
2022/08/03 00:13:42;;;;;;;4.70;2.20;;;19.50;99.90;;;;;;5043117;28;20052;-62
2022/08/03 00:16:09;;;;;;;4.53;2.35;;;19.70;99.90;;;;;;5041008;28;20520;-61
2022/08/03 00:18:35;;;;;;;4.70;2.20;;;19.50;99.90;;;;;;5042085;28;20738;-61
2022/08/03 00:21:02;;;;;;;10.30;3.40;;;19.50;99.90;;;;;;5042004;28;20075;-61
2022/08/03 00:23:27;;;;;;;5.78;2.75;;;19.50;99.90;;;;;;5040684;28;20033;-60
2022/08/03 00:25:53;;;;;;;4.47;2.88;;;19.50;99.90;;;;;;5023541;28;20102;-61
2022/08/03 00:28:18;;;;;;;4.97;2.30;;;19.40;99.90;;;;;;5042171;28;20119;-63
2022/08/03 00:30:45;;;;;;;6.10;2.35;;;19.40;99.90;;;;;;5042361;28;20049;-62
2022/08/03 00:33:10;;;;;;;4.53;2.30;;;19.40;99.90;;;;;;5041930;28;20041;-63
2022/08/03 00:35:36;;;;;;;6.78;2.70;;;19.40;99.90;;;;;;5042264;28;20045;-63
2022/08/03 00:38:02;;;;;;;6.57;2.70;;;19.40;99.90;;;;;;5040265;28;20048;-63
2022/08/03 00:40:27;;;;;;;6.68;2.50;;;19.40;99.90;;;;;;5042566;28;20091;-63
2022/08/03 00:42:53;;;;;;;5.65;2.53;;;19.30;99.90;;;;;;5038571;28;20077;-62
2022/08/03 00:45:22;;;;;;;3.47;2.63;;;19.30;99.90;;;;;;5041707;28;20048;-62
2022/08/03 00:47:47;;;;;;;8.30;2.22;;;19.30;99.90;;;;;;5036013;28;20064;-63
2022/08/03 00:50:13;;;;;;;4.45;2.28;;;19.30;99.90;;;;;;5033337;28;20055;-63
2022/08/03 00:52:39;;;;;;;5.00;2.63;;;19.20;99.90;;;;;;5031488;28;20077;-61
2022/08/03 00:55:05;;;;;;;4.72;2.55;;;19.30;99.90;;;;;;5030776;28;20084;-63
2022/08/03 00:57:32;;;;;;;4.30;2.20;;;19.30;99.90;;;;;;5030495;28;20060;-62
2022/08/03 00:59:58;;;;;;;7.45;2.28;;;19.20;99.90;;;;;;5036881;28;20441;-62
2022/08/03 01:02:28;;;;;;;6.82;2.47;;;19.20;99.90;;;;;;5029965;28;20072;-63
2022/08/03 01:04:54;;;;;;;5.07;1.75;;;19.20;99.90;;;;;;5027842;28;20405;-63
2022/08/03 01:07:22;;;;;;;4.00;2.25;;;19.20;99.90;;;;;;5035301;28;20421;-61
2022/08/03 01:09:57;;;;;;;4.32;2.60;;;19.20;99.90;;;;;;5000955;28;20057;-61
2022/08/03 01:12:52;;;;;;;4.97;2.28;;;19.20;99.90;;;;;;5034255;28;20037;-62
2022/08/03 01:15:42;;;;;;;6.97;2.63;;;19.20;99.90;;;;;;5019056;28;20164;-61
2022/08/03 01:18:17;;;;;;;6.20;1.77;;;19.20;99.90;;;;;;5019342;28;20124;-61
2022/08/03 01:20:50;;;;;;;5.82;2.40;;;19.10;99.90;;;;;;5030731;28;20048;-62
2022/08/03 01:23:57;;;;;;;3.65;2.08;;;19.20;99.90;;;;;;5035058;28;20055;-62
2022/08/03 01:26:50;;;;;;;5.88;1.90;;;19.10;99.90;;;;;;5033243;28;20086;-62
2022/08/03 01:29:34;;;;;;;6.45;2.78;;;19.10;99.90;;;;;;5035917;28;20037;-61
2022/08/03 01:32:07;;;;;;;6.72;2.22;;;19.10;99.90;;;;;;5034540;28;20095;-62
2022/08/03 01:34:40;;;;;;;5.68;2.33;;;19.00;99.90;;;;;;5033177;28;20045;-62
2022/08/03 01:37:08;;;;;;;4.85;2.00;;;19.20;99.90;;;;;;5032596;28;20057;-62
2022/08/03 01:39:36;;;;;;;8.13;1.60;;;19.00;99.90;;;;;;5036086;28;20049;-61
2022/08/03 01:42:05;;;;;;;8.75;2.03;;;19.00;99.90;;;;;;5034130;28;20138;-61
2022/08/03 01:44:36;;;;;;;11.82;2.65;;;19.00;99.90;;;;;;5035350;28;20041;-61
2022/08/03 01:47:03;;;;;;;8.88;2.53;;;19.00;99.90;;;;;;5034971;28;20053;-61
2022/08/03 01:49:32;;;;;;;4.68;1.83;;;19.00;99.90;;;;;;5042948;28;20045;-61
2022/08/03 01:51:58;;;;;;;8.95;2.22;;;19.60;99.90;;;;;;5043630;28;20120;-60
2022/08/03 01:54:26;;;;;;;4.97;2.00;;;18.90;99.90;;;;;;5044404;28;20036;-62
2022/08/03 01:56:55;;;;;;;4.10;1.90;;;18.90;99.90;;;;;;5043576;28;20056;-63
2022/08/03 01:59:22;;;;;;;9.65;2.25;;;18.90;99.90;;;;;;5044880;28;20060;-60
2022/08/03 02:01:49;;;;;;;8.55;1.90;;;18.90;99.90;;;;;;5042921;28;20163;-61
2022/08/03 02:04:18;;;;;;;9.07;2.08;;;18.90;99.90;;;;;;5042875;28;20037;-65
2022/08/03 02:06:45;;;;;;;4.55;2.17;;;18.90;99.90;;;;;;5045329;28;20076;-62
2022/08/03 02:09:13;;;;;;;5.18;2.03;;;18.80;99.90;;;;;;5043405;28;20036;-62
2022/08/03 02:11:40;;;;;;;7.25;1.98;;;18.80;99.90;;;;;;5044532;28;20102;-61
2022/08/03 02:14:08;;;;;;;6.25;2.20;;;18.80;99.90;;;;;;5045143;28;20086;-61
2022/08/03 02:16:35;;;;;;;6.65;2.30;;;18.70;99.90;;;;;;5026357;28;20059;-61
2022/08/03 02:19:03;;;;;;;7.60;2.13;;;18.80;99.90;;;;;;5043688;28;20155;-62
2022/08/03 02:21:32;;;;;;;4.00;2.08;;;18.70;99.90;;;;;;5044012;28;20083;-62
2022/08/03 02:23:58;;;;;;;4.07;1.42;;;18.70;99.90;;;;;;5042012;28;20052;-61
2022/08/03 02:26:27;;;;;;;5.10;2.20;;;18.70;99.90;;;;;;5044216;28;20060;-61
2022/08/03 02:28:56;;;;;;;4.45;2.10;;;18.70;99.90;;;;;;5042886;28;20098;-64
2022/08/03 02:31:27;;;;;;;9.20;2.25;;;18.70;99.90;;;;;;5044114;28;20045;-62
2022/08/03 02:33:56;;;;;;;3.92;1.67;;;18.60;99.90;;;;;;5041840;28;20045;-62
2022/08/03 02:36:28;;;;;;;4.70;1.77;;;18.60;99.90;;;;;;5043347;28;20127;-61
2022/08/03 02:38:54;;;;;;;;;;;18.70;99.90;;;;;;5041558;28;20405;-61
2022/08/03 02:41:24;;;;;;;6.10;2.25;;;18.60;99.90;;;;;;5043536;28;19937;-59
2022/08/03 02:43:53;;;;;;;4.75;2.10;;;19.70;99.90;;;;;;5042930;28;20412;-61
2022/08/03 02:46:21;;;;;;;7.13;2.30;;;18.50;99.90;;;;;;5043292;28;20123;-60
2022/08/03 02:48:49;;;;;;;5.88;1.98;;;18.50;99.90;;;;;;5034357;28;20106;-60
2022/08/03 02:51:17;;;;;;;3.08;1.98;;;18.50;99.90;;;;;;5032355;28;20044;-63
2022/08/03 02:53:45;;;;;;;3.88;2.05;;;18.50;99.90;;;;;;5035742;28;20056;-59
2022/08/03 02:56:12;;;;;;;14.98;2.58;;;18.50;99.90;;;;;;5031618;28;20072;-60
2022/08/03 02:58:41;;;;;;;4.30;1.58;;;18.50;99.90;;;;;;5032198;28;20489;-59
2022/08/03 03:01:07;;;;;;;6.82;1.80;;;18.50;99.90;;;;;;5029320;28;20077;-61
2022/08/03 03:03:34;;;;;;;4.05;1.65;;;18.50;99.90;;;;;;5033629;28;20041;-61
2022/08/03 03:06:01;;;;;;;5.53;2.22;;;18.50;99.90;;;;;;5034555;28;20048;-62
2022/08/03 03:08:28;;;;;;;6.05;1.80;;;18.50;99.90;;;;;;5032341;28;20040;-61
2022/08/03 03:10:55;;;;;;;4.55;2.38;;;18.40;99.90;;;;;;5032435;28;20049;-62
2022/08/03 03:13:22;;;;;;;5.82;2.25;;;18.40;99.90;;;;;;5036361;28;20038;-63
2022/08/03 03:15:49;;;;;;;8.38;1.98;;;18.50;99.90;;;;;;5036624;28;20045;-61
2022/08/03 03:18:16;;;;;;;5.38;1.92;;;18.50;99.90;;;;;;5027800;28;20124;-66
2022/08/03 03:20:43;;;;;;;4.97;2.00;;;18.40;99.90;;;;;;5032070;28;20046;-63
2022/08/03 03:23:09;;;;;;;3.88;1.83;;;18.40;99.90;;;;;;5030051;28;20041;-61
2022/08/03 03:25:35;;;;;;;9.95;2.20;;;18.40;99.90;;;;;;5030151;28;20865;-62
2022/08/03 03:28:01;;;;;;;4.60;1.92;;;18.40;99.90;;;;;;5029652;28;20037;-62
2022/08/03 03:30:28;;;;;;;7.00;2.30;;;18.40;99.90;;;;;;5035049;28;20045;-62
2022/08/03 03:32:55;;;;;;;7.32;2.03;;;18.50;99.90;;;;;;5032614;28;20045;-63
2022/08/03 03:35:21;;;;;;;4.68;1.83;;;18.40;99.90;;;;;;5030868;28;20056;-61
2022/08/03 03:37:47;;;;;;;4.35;2.00;;;18.40;99.90;;;;;;5032986;28;20041;-61
2022/08/03 03:40:13;;;;;;;7.00;2.55;;;18.40;99.90;;;;;;5031995;28;20053;-61
2022/08/03 03:42:39;;;;;;;5.70;1.80;;;18.30;99.90;;;;;;5031686;28;20132;-61
2022/08/03 03:45:07;;;;;;;9.57;2.97;;;18.30;99.90;;;;;;5027678;28;20670;-63
2022/08/03 03:47:34;;;;;;;8.20;2.47;;;18.40;99.90;;;;;;5035315;28;20048;-60
2022/08/03 03:50:04;;;;;;;5.28;2.13;;;18.40;99.90;;;;;;5042047;28;20072;-62
2022/08/03 03:52:31;;;;;;;6.20;2.40;;;18.30;99.90;;;;;;5041837;28;20122;-61
2022/08/03 03:54:57;;;;;;;6.80;2.10;;;18.30;99.90;;;;;;5040883;28;20441;-63
2022/08/03 03:57:22;;;;;;;8.07;2.58;;;18.70;99.90;;;;;;5042766;28;20080;-63
2022/08/03 03:59:48;;;;;;;7.70;2.47;;;18.30;99.90;;;;;;5042005;28;20041;-61
2022/08/03 04:02:14;;;;;;;3.60;1.90;;;18.30;99.90;;;;;;5039975;28;20052;-61
2022/08/03 04:13:13;;;;;;;7.32;1.95;;;18.20;99.90;;;;;;5041034;28;20049;-62
2022/08/03 04:15:40;;;;;;;6.38;2.53;;;18.20;99.90;;;;;;5040269;28;20079;-59
2022/08/03 04:18:11;;;;;;;7.53;2.47;;;18.20;99.90;;;;;;5041012;28;20124;-59
2022/08/03 04:20:39;;;;;;;4.63;2.30;;;18.20;99.90;;;;;;5041239;28;20053;-59
2022/08/03 04:23:06;;;;;;;6.78;2.25;;;18.20;99.90;;;;;;5039993;28;20033;-61
2022/08/03 04:25:34;;;;;;;8.50;2.85;;;18.20;99.90;;;;;;5042212;28;20211;-59
2022/08/03 04:28:01;;;;;;;9.85;2.63;;;18.20;99.90;;;;;;5039457;28;20513;-58
2022/08/03 04:30:28;;;;;;;4.03;2.50;;;18.10;99.90;;;;;;5042395;28;20483;-59
2022/08/03 04:32:58;;;;;;;4.88;2.50;;;18.20;99.90;;;;;;5040945;28;20455;-62
2022/08/03 04:35:32;;;;;;;9.43;2.97;;;18.20;99.90;;;;;;5039765;28;20559;-59
2022/08/03 04:38:02;;;;;;;5.72;3.28;;;18.10;99.90;;;;;;5039290;28;20045;-59
2022/08/03 04:40:33;;;;;;;3.95;2.35;;;18.20;99.90;;;;;;5044901;28;20045;-61
2022/08/03 04:43:00;;;;;;;6.05;2.60;;;18.10;99.90;;;;;;5042928;28;20893;-60
2022/08/03 04:45:30;;;;;;;10.82;2.92;;;18.20;99.90;;;;;;5045534;28;20128;-58
2022/08/03 04:47:56;;;;;;;6.88;2.47;;;18.20;99.90;;;;;;5043277;28;20433;-61
2022/08/03 04:50:23;;;;;;;9.13;2.63;;;18.20;99.90;;;;;;5045018;28;20036;-59
2022/08/03 04:52:49;;;;;;;4.88;2.42;;;18.30;99.90;;;;;;5044669;28;20029;-58
2022/08/03 04:55:28;;;;;;;6.88;2.60;;;18.30;99.90;;;;;;5045184;28;20132;-62
2022/08/03 04:57:54;;;;;;;11.40;2.50;;;18.30;99.90;;;;;;5042984;28;20080;-62
2022/08/03 05:00:20;;;;;;;5.07;2.50;;;18.30;99.90;;;;;;5045598;28;20041;-59
2022/08/03 05:02:46;;;;;;;10.30;2.67;;;18.30;99.90;;;;;;5043585;28;20740;-58
2022/08/03 05:05:12;;;;;;;7.35;2.67;;;18.40;99.90;;;;;;5026143;28;20114;-61
2022/08/03 05:07:37;;;;;;;5.90;2.63;;;18.40;99.90;;;;;;5044353;28;20124;-56
2022/08/03 05:10:08;;;;;;;5.93;2.70;;;18.40;99.90;;;;;;5043736;28;20033;-57
2022/08/03 05:12:33;;;;;;;12.95;2.80;;;18.40;99.90;;;;;;5045339;28;20120;-60
2022/08/03 05:15:00;;;;;;;4.78;2.83;;;18.50;99.90;;;;;;5026292;28;20131;-61
2022/08/03 05:17:25;;;;;;;9.13;2.15;;;18.50;99.90;;;;;;5043380;28;20127;-60
2022/08/03 05:19:51;;;;;;;8.75;2.75;;;18.60;99.90;;;;;;5043397;28;20462;-58
2022/08/03 05:22:16;;;;;;;11.10;2.65;;;18.60;99.90;;;;;;5043259;28;20056;-59
2022/08/03 05:24:42;;;;;;;9.60;3.22;;;18.60;99.90;;;;;;5044265;28;20717;-62
2022/08/03 05:27:07;;;;;;;7.53;3.10;;;18.50;99.90;;;;;;5040795;28;20053;-59
2022/08/03 05:29:33;;;;;;;6.47;2.70;;;18.70;99.90;;;;;;5045287;28;20134;-58
2022/08/03 05:32:00;;;;;;;4.93;2.35;;;18.70;99.90;;;;;;5042586;28;20049;-58
2022/08/03 05:34:26;;;;;;;7.53;2.30;;;18.80;99.90;;;;;;5043599;28;20047;-59
2022/08/03 05:36:51;;;;;;;5.38;2.63;;;18.80;99.90;;;;;;5044320;28;20044;-59
2022/08/03 05:39:17;;;;;;;6.80;2.45;;;18.80;99.90;;;;;;5043926;28;20037;-55
2022/08/03 05:41:43;;;;;;;9.35;3.05;;;18.90;99.90;;;;;;5044545;28;20447;-59
2022/08/03 05:44:08;;;;;;;8.27;3.25;;;18.90;99.90;;;;;;5043794;28;20530;-59
2022/08/03 05:46:34;;;;;;;9.65;2.78;;;19.00;99.90;;;;;;5044010;28;20347;-60
2022/08/03 05:48:59;;;;;;;10.82;3.17;;;19.00;99.90;;;;;;5042241;28;20052;-59
2022/08/03 05:51:25;;;;;;;6.53;2.90;;;19.10;99.90;;;;;;5044480;28;20079;-59
2022/08/03 05:53:51;;;;;;;11.45;2.88;;;19.10;99.90;;;;;;5042276;28;20052;-59
2022/08/03 05:56:20;;;;;;;11.85;3.05;;;19.20;99.90;;;;;;5043734;28;20041;-59
2022/08/03 05:58:46;;;;;;;11.02;2.78;;;19.20;99.90;;;;;;5041230;28;20045;-62
2022/08/03 06:01:11;;;;;;;9.30;2.55;;;19.30;99.90;;;;;;5025274;28;20033;-60
2022/08/03 06:03:37;;;;;;;5.03;2.17;;;19.40;99.90;;;;;;5044021;28;20513;-59
2022/08/03 06:06:03;;;;;;;6.63;2.15;;;19.50;99.90;;;;;;5042445;28;20045;-58
2022/08/03 06:08:28;;;;;;;12.75;2.72;;;19.50;99.90;;;;;;5043234;28;20045;-59
2022/08/03 06:10:54;;;;;;;12.68;2.47;;;19.50;99.90;;;;;;5043413;28;20053;-61
2022/08/03 06:13:20;;;;;;;11.55;3.00;;;19.60;99.90;;;;;;5043197;28;20044;-61
2022/08/03 06:15:46;;;;;;;8.18;3.00;;;19.60;99.90;;;;;;5041470;28;20052;-59
2022/08/03 06:18:11;;;;;;;7.18;3.03;;;19.70;99.90;;;;;;5043403;28;20124;-60
2022/08/03 06:20:37;;;;;;;6.50;2.50;;;19.80;99.90;;;;;;5043350;28;20056;-59
2022/08/03 06:23:03;;;;;;;10.23;2.83;;;19.80;99.90;;;;;;5042337;28;20033;-59
2022/08/03 06:25:29;;;;;;;7.82;2.67;;;19.80;99.90;;;;;;5043591;28;20041;-60
2022/08/03 06:27:55;;;;;;;11.98;2.75;;;20.00;99.90;;;;;;5040656;28;20095;-62
2022/08/03 06:30:20;;;;;;;11.95;2.97;;;20.20;99.90;;;;;;5042690;28;20045;-56
2022/08/03 06:32:46;;;;;;;10.07;2.40;;;19.90;99.90;;;;;;5042271;28;20049;-58
2022/08/03 06:35:12;;;;;;;9.48;2.90;;;20.00;99.90;;;;;;5042076;28;20052;-59
2022/08/03 06:37:46;;;;;;;10.07;3.20;;;20.00;99.90;;;;;;5043448;28;20041;-59
2022/08/03 06:40:13;;;;;;;10.20;3.50;;;20.10;99.90;;;;;;5043127;28;20052;-60
2022/08/03 06:42:40;;;;;;;12.90;3.20;;;20.20;99.90;;;;;;5042642;28;20080;-59
2022/08/03 06:45:07;;;;;;;12.07;3.20;;;20.20;99.90;;;;;;5041758;28;20044;-62
2022/08/03 06:47:34;;;;;;;12.43;3.40;;;20.30;99.90;;;;;;5040596;28;20060;-59
2022/08/03 06:50:00;;;;;;;12.35;2.92;;;20.30;99.90;;;;;;5040241;28;20124;-57
2022/08/03 06:52:25;;;;;;;13.52;3.65;;;20.40;99.90;;;;;;5043361;28;20584;-59
2022/08/03 06:54:51;;;;;;;12.05;2.85;;;20.40;99.90;;;;;;5042966;28;20045;-59
2022/08/03 06:57:17;;;;;;;10.02;3.10;;;20.50;99.90;;;;;;5042269;28;20052;-59
2022/08/03 06:59:43;;;;;;;12.07;4.03;;;20.50;99.90;;;;;;5041258;28;20060;-60
2022/08/03 07:02:09;;;;;;;10.25;3.00;;;20.60;99.90;;;;;;5035897;28;20539;-59
2022/08/03 07:04:35;;;;;;;10.80;2.90;;;20.70;99.90;;;;;;5040303;28;20052;-60
2022/08/03 07:07:00;;;;;;;7.65;2.65;;;20.70;99.90;;;;;;5040777;28;20171;-60
2022/08/03 07:09:26;;;;;;;10.88;3.13;;;20.80;99.90;;;;;;5043367;28;20036;-59
2022/08/03 07:11:52;;;;;;;8.45;3.13;;;20.90;99.90;;;;;;5040369;28;20052;-57
2022/08/03 07:14:18;;;;;;;11.65;3.30;;;20.90;99.90;;;;;;5043743;28;20053;-58
2022/08/03 07:16:44;;;;;;;8.23;2.80;;;21.00;99.90;;;;;;5041845;28;20047;-60
2022/08/03 07:19:11;;;;;;;12.23;3.00;;;21.10;99.90;;;;;;5044579;28;20098;-59
2022/08/03 07:21:36;;;;;;;9.48;3.67;;;21.10;99.90;;;;;;5044795;28;20055;-59
2022/08/03 07:24:02;;;;;;;9.63;3.38;;;21.20;99.90;;;;;;5036557;28;20115;-63
2022/08/03 07:26:28;;;;;;;8.48;3.00;;;21.30;99.90;;;;;;5039050;28;20555;-59
2022/08/03 07:28:54;;;;;;;6.78;2.42;;;21.30;99.90;;;;;;5039095;28;20049;-57
2022/08/03 07:31:19;;;;;;;8.77;3.90;;;21.40;99.90;;;;;;5044166;28;20094;-59
2022/08/03 07:33:45;;;;;;;12.70;3.38;;;21.50;99.90;;;;;;5044681;28;20114;-63
2022/08/03 07:36:11;;;;;;;10.63;3.20;;;21.60;99.90;;;;;;5044948;28;20053;-59
2022/08/03 07:38:36;;;;;;;8.15;3.00;;;21.70;99.90;;;;;;5041830;28;20604;-61
2022/08/03 07:41:03;;;;;;;9.13;3.10;;;21.70;99.90;;;;;;5042092;28;20045;-60
2022/08/03 07:43:28;;;;;;;8.70;2.83;;;21.80;99.90;;;;;;5038916;28;20073;-62
2022/08/03 07:45:54;;;;;;;12.43;3.53;;;21.80;99.90;;;;;;5038514;28;20099;-58
2022/08/03 07:48:20;;;;;;;7.85;3.70;;;22.00;99.90;;;;;;5029580;28;20115;-53
2022/08/03 07:50:45;;;;;;;12.05;3.17;;;22.00;99.90;;;;;;5024889;28;20128;-63
2022/08/03 07:53:11;;;;;;;9.45;3.50;;;22.10;99.90;;;;;;5024114;28;20053;-66
2022/08/03 07:55:37;;;;;;;9.27;3.05;;;22.20;99.90;;;;;;5024530;28;20053;-63
2022/08/03 07:58:05;;;;;;;9.32;3.63;;;22.30;99.90;;;;;;5024285;28;20420;-64
2022/08/03 08:00:31;;;;;;;6.35;2.92;;;22.30;99.90;;;;;;5023939;28;20059;-62
2022/08/03 08:02:57;;;;;;;9.35;3.75;;;22.40;99.90;;;;;;5023751;28;20042;-64
2022/08/03 08:05:22;;;;;;;9.48;3.28;;;22.50;99.90;;;;;;5022627;28;20064;-62
2022/08/03 08:07:48;;;;;;;5.90;2.90;;;22.50;99.90;;;;;;5022875;28;20095;-61
2022/08/03 08:10:14;;;;;;;12.13;3.33;;;22.50;99.90;;;;;;5024815;28;20049;-62
2022/08/03 08:12:41;;;;;;;14.27;3.67;;;22.60;99.90;;;;;;5025378;28;20045;-62
2022/08/03 08:15:07;;;;;;;6.85;3.17;;;22.70;99.90;;;;;;5024339;28;20088;-66
2022/08/03 08:17:48;;;;;;;9.40;3.42;;;22.80;99.90;;;;;;5022024;28;20054;-62
2022/08/03 08:20:22;;;;;;;6.68;3.45;;;22.80;99.90;;;;;;5024777;28;20156;-63
2022/08/03 08:22:48;;;;;;;10.50;3.25;;;22.80;99.90;;;;;;5023292;28;20042;-62
2022/08/03 08:25:14;;;;;;;6.85;3.47;;;22.90;99.90;;;;;;5025618;28;20049;-64
2022/08/03 08:27:42;;;;;;;8.30;2.95;;;22.90;99.90;;;;;;5024615;28;20089;-65
2022/08/03 08:30:08;;;;;;;11.13;4.00;;;23.00;99.90;;;;;;5019721;28;20089;-64
2022/08/03 08:32:36;;;;;;;10.45;3.53;;;23.10;99.90;;;;;;5020407;28;20089;-63
2022/08/03 08:35:02;;;;;;;8.80;3.67;;;23.20;99.90;;;;;;5018497;28;20485;-62
2022/08/03 08:37:28;;;;;;;9.70;3.67;;;23.30;99.90;;;;;;5020624;28;20092;-62
2022/08/03 08:39:55;;;;;;;10.75;4.07;;;23.40;99.90;;;;;;5025294;28;20753;-63
2022/08/03 08:42:20;;;;;;;9.98;4.53;;;23.50;99.90;;;;;;5027959;28;20049;-63
2022/08/03 08:44:46;;;;;;;9.20;4.00;;;23.50;99.90;;;;;;5028648;28;20045;-62
2022/08/03 08:47:12;;;;;;;8.57;4.20;;;23.70;99.90;;;;;;5023162;28;20092;-62
2022/08/03 08:49:40;;;;;;;6.75;3.30;;;23.60;99.90;;;;;;5047390;28;20049;-64
2022/08/03 08:52:08;;;;;;;10.93;4.25;;;23.50;99.90;;;;;;5047383;28;20863;-63
2022/08/03 08:54:35;;;;;;;8.73;4.78;;;23.50;99.90;;;;;;5044100;28;20072;-65
2022/08/03 08:57:02;;;;;;;7.82;4.55;;;23.50;99.90;;;;;;5044213;28;20155;-65
2022/08/03 08:59:33;;;;;;;13.80;4.55;;;23.50;99.90;;;;;;5043808;28;20049;-64
2022/08/03 09:01:59;;;;;;;5.10;3.75;;;23.50;99.90;;;;;;5039831;28;20067;-62
2022/08/03 09:04:25;;;;;;;304.63;29.95;;;;;;;;;;5043509;28;20045;-59
2022/08/03 09:06:51;;;;;;;76.57;15.02;;;;;;;;;;5043339;28;20045;-67
2022/08/03 09:09:17;;;;;;;12.73;4.28;;;;;;;;;;5044291;28;21949;-65
2022/08/03 09:11:43;;;;;;;6.85;2.92;;;;;;;;;;5044621;28;20053;-65
2022/08/03 09:14:10;;;;;;;2.53;1.95;;;;;;;;;;5045603;28;20038;-66
2022/08/03 09:16:36;;;;;;;5.18;2.30;;;;;;;;;;5047184;28;20148;-64
2022/08/03 09:19:15;;;;;;;2.80;1.80;;;;;;;;;;5046436;28;20045;-67
2022/08/03 09:21:41;;;;;;;1.17;1.08;;;;;;;;;;5041541;28;20053;-66
2022/08/03 09:24:07;;;;;;;4.50;2.75;;;;;;;;;;5045408;28;20474;-66
2022/08/03 09:26:34;;;;;;;3.70;2.22;;;;;;;;;;5047327;28;20044;-67
2022/08/03 09:29:02;;;;;;;4.00;2.17;;;;;;;;;;5046760;28;20564;-67
2022/08/03 09:31:30;;;;;;;45.67;5.25;;;;;;;;;;5042570;28;20042;-58
2022/08/03 09:33:59;;;;;;;3.83;2.88;;;;;;;;;;5041463;28;20041;-53
2022/08/03 09:36:36;;;;;;;2.72;2.50;;;;;;;;;;5039310;28;20128;-55
2022/08/03 09:39:05;;;;;;;3.20;2.25;;;;;;;;;;5038956;28;20053;-50
2022/08/03 09:41:31;;;;;;;5.78;2.53;;;;;;;;;;5040388;28;20055;-53
2022/08/03 09:43:57;;;;;;;3.95;2.55;;;;;;;;;;5047133;28;20091;-56
2022/08/03 09:46:23;;;;;;;5.75;3.45;;;;;;;;;;5028237;28;20045;-57
2022/08/03 09:48:49;;;;;;;2.97;2.50;;;;;;;;;;5043493;28;20139;-52
2022/08/03 09:51:17;;;;;;;6.57;3.53;;;;;;;;;;5046230;28;20091;-63
2022/08/03 09:53:44;;;;;;;5.38;3.20;;;;;;;;;;5046138;28;20116;-55
2022/08/03 09:56:10;;;;;;;7.18;3.85;;;;;;;;;;5045842;28;20126;-60
2022/08/03 09:58:45;;;;;;;6.22;3.45;;;;;;;;;;5045964;28;20080;-54
2022/08/03 10:01:11;;;;;;;4.97;3.30;;;;;;;;;;5041533;28;20045;-55
2022/08/03 10:03:38;;;;;;;5.65;3.38;;;;;;;;;;5045289;28;20041;-52
2022/08/03 10:06:21;;;;;;;9.35;3.22;;;;;;;;;;5044506;28;20470;-58
2022/08/03 10:08:47;;;;;;;8.73;2.90;;;;;;;;;;5040872;28;20088;-61
2022/08/03 10:11:28;;;;;;;7.13;3.53;;;;;;;;;;5044803;28;20037;-51
2022/08/03 10:13:54;;;;;;;7.65;3.25;;;;;;;;;;5044130;28;20048;-58
2022/08/03 10:16:20;;;;;;;5.00;3.30;;;;;;;;;;5042904;28;20414;-58
2022/08/03 10:18:46;;;;;;;5.70;2.97;;;;;;;;;;5035980;28;20068;-58
2022/08/03 10:21:15;;;;;;;8.30;3.58;;;;;;;;;;5035147;28;20083;-56
2022/08/03 10:23:41;;;;;;;3.00;2.63;;;;;;;;;;5043811;28;20045;-57
2022/08/03 10:26:07;;;;;;;3.78;2.70;;;;;;;;;;5042657;28;20409;-52
2022/08/03 10:28:40;;;;;;;6.65;2.97;;;;;;;;;;5044808;28;20045;-54
2022/08/03 10:31:07;;;;;;;3.67;2.30;;;;;;;;;;5042681;28;20056;-52
2022/08/03 10:33:36;;;;;;;4.43;2.72;;;;;;;;;;5041709;28;20055;-58
2022/08/03 10:36:05;;;;;;;5.93;2.58;;;;;;;;;;5041986;28;20183;-56
2022/08/03 10:38:37;;;;;;;9.57;3.17;;;;;;;;;;5043935;28;20056;-57
2022/08/03 10:41:04;;;;;;;9.23;3.42;;;;;;;;;;5042446;28;20115;-57
2022/08/03 10:43:38;;;;;;;6.10;2.72;;;;;;;;;;5036816;28;20048;-57
2022/08/03 10:46:06;;;;;;;4.20;1.80;;;;;;;;;;5042768;28;20678;-58
2022/08/03 10:48:34;;;;;;;6.97;3.08;;;;;;;;;;5030397;28;20057;-52
2022/08/03 10:51:00;;;;;;;5.13;3.03;;;;;;;;;;5023048;28;20131;-60
2022/08/03 10:53:36;;;;;;;7.43;3.00;;;;;;;;;;5022694;28;20064;-59
2022/08/03 10:58:48;;;;;;;9.35;3.55;;;;;;;;;;5026898;28;20057;-54
2022/08/03 11:01:16;;;;;;;6.28;3.35;;;;;;;;;;5022008;28;20084;-53
2022/08/03 11:04:02;;;;;;;9.48;4.55;;;;;;;;;;5029140;28;20137;-54
2022/08/03 11:06:28;;;;;;;7.20;3.97;;;;;;;;;;5008746;28;20056;-53
2022/08/03 11:09:17;;;;;;;4.85;3.92;;;;;;;;;;5022437;28;20037;-57
2022/08/03 11:11:44;;;;;;;10.05;4.63;;;;;;;;;;5012779;28;20439;-57
2022/08/03 11:14:15;;;;;;;6.97;4.32;;;;;;;;;;5025932;28;20844;-53
2022/08/03 11:16:41;;;;;;;5.22;3.70;;;;;;;;;;5013612;28;20058;-55
2022/08/03 11:19:08;;;;;;;7.18;4.00;;;;;;;;;;5022218;28;20051;-54
2022/08/03 11:21:49;;;;;;;6.05;3.33;;;;;;;;;;5015227;28;20099;-56
2022/08/03 11:24:34;;;;;;;7.95;4.10;;;;;;;;;;5021501;28;20131;-63
2022/08/03 11:27:19;;;;;;;5.55;3.92;;;;;;;;;;5021935;28;20077;-53
2022/08/03 11:29:58;;;;;;;11.18;4.72;;;;;;;;;;5030808;28;20045;-64
2022/08/03 11:32:39;;;;;;;4.13;3.38;;;;;;;;;;5024224;28;20907;-53
2022/08/03 11:35:09;;;;;;;4.85;3.50;;;;;;;;;;5021543;28;20561;-56
2022/08/03 11:37:35;;;;;;;6.78;3.13;;;;;;;;;;5028317;28;20049;-58
2022/08/03 11:40:02;;;;;;;4.70;3.15;;;;;;;;;;5018237;28;20068;-53
2022/08/03 11:42:28;;;;;;;6.47;3.80;;;;;;;;;;5021773;28;20034;-57
2022/08/03 11:44:55;;;;;;;9.82;4.47;;;;;;;;;;5025974;28;20112;-55
2022/08/03 11:47:22;;;;;;;7.35;3.47;;;;;;;;;;5034759;28;20076;-51
2022/08/03 11:49:49;;;;;;;5.68;3.40;;;;;;;;;;5043999;28;20049;-57
2022/08/03 11:52:18;;;;;;;6.75;3.20;;;;;;;;;;5041327;28;20049;-62
2022/08/03 11:54:44;;;;;;;4.00;2.00;;;;;;;;;;5039777;28;20045;-53
2022/08/03 11:57:10;;;;;;;7.45;3.40;;;;;;;;;;5036030;28;20611;-53
2022/08/03 11:59:37;;;;;;;9.25;4.28;;;;;;;;;;5042382;28;20049;-53
2022/08/03 12:02:10;;;;;;;7.53;3.35;;;;;;;;;;5037389;28;20056;-54
2022/08/03 12:04:50;;;;;;;8.30;3.67;;;;;;;;;;5020839;28;20459;-56
2022/08/03 12:07:16;;;;;;;5.97;3.28;;;;;;;;;;5041688;28;20041;-64
2022/08/03 12:09:42;;;;;;;6.45;3.58;;;;;;;;;;5043201;28;20118;-53
2022/08/03 12:12:08;;;;;;;4.70;2.70;;;;;;;;;;5041573;28;20073;-53
2022/08/03 12:14:35;;;;;;;8.63;4.25;;;;;;;;;;5039187;28;20120;-57
2022/08/03 12:17:01;;;;;;;8.88;3.88;;;;;;;;;;5040308;28;20806;-53
2022/08/03 12:19:27;;;;;;;8.63;3.30;;;;;;;;;;5040529;28;20087;-56
2022/08/03 12:21:53;;;;;;;8.73;3.83;;;;;;;;;;5040702;28;20131;-59
2022/08/03 12:24:19;;;;;;;8.75;3.00;;;;;;;;;;5039970;28;20150;-54
2022/08/03 12:26:46;;;;;;;5.03;3.17;;;;;;;;;;5042814;28;20118;-64
2022/08/03 12:29:24;;;;;;;6.85;3.38;;;;;;;;;;5043017;28;20051;-54
2022/08/03 12:31:50;;;;;;;8.05;4.40;;;;;;;;;;5043100;28;20128;-56
2022/08/03 12:34:17;;;;;;;8.82;4.15;;;;;;;;;;5040752;28;20060;-58
2022/08/03 12:36:50;;;;;;;9.25;3.83;;;;;;;;;;5041027;28;20098;-57
2022/08/03 12:39:16;;;;;;;7.25;3.05;;;;;;;;;;5040438;28;20130;-65
2022/08/03 12:41:42;;;;;;;5.55;2.85;;;;;;;;;;5037095;28;20060;-59
2022/08/03 12:44:09;;;;;;;7.45;3.42;;;;;;;;;;5041592;28;20045;-61
2022/08/03 12:46:39;;;;;;;7.32;3.92;;;;;;;;;;5040232;28;20076;-55
2022/08/03 12:49:10;;;;;;;7.82;3.63;;;;;;;;;;5034327;28;20464;-58
2022/08/03 12:51:41;;;;;;;8.85;3.42;;;;;;;;;;5038968;28;20041;-51
2022/08/03 12:54:08;;;;;;;8.65;3.65;;;;;;;;;;5042254;28;20098;-55
2022/08/03 12:56:34;;;;;;;10.75;5.22;;;;;;;;;;5040667;28;20052;-59
2022/08/03 12:59:01;;;;;;;6.25;3.17;;;;;;;;;;5043658;28;20151;-54
2022/08/03 13:01:35;;;;;;;7.78;3.00;;;;;;;;;;5046771;28;20413;-55
2022/08/03 13:04:01;;;;;;;10.52;3.03;;;;;;;;;;5047218;28;20489;-53
2022/08/03 13:06:27;;;;;;;6.13;2.70;;;;;;;;;;5047070;28;20048;-53
2022/08/03 13:09:06;;;;;;;2.22;1.67;;;;;;;;;;5046729;28;20040;-56
2022/08/03 13:11:33;;;;;;;5.18;2.20;;;;;;;;;;5044285;28;20129;-53
2022/08/03 13:13:59;;;;;;;3.45;2.00;;;;;;;;;;5047224;28;20037;-59
2022/08/03 13:16:25;;;;;;;2.80;1.52;;;;;;;;;;5046146;28;20695;-57
2022/08/03 13:18:52;;;;;;;2.35;1.63;;;;;;;;;;5047023;28;20563;-57
2022/08/03 13:21:18;;;;;;;4.15;2.13;;;;;;;;;;5047122;28;20045;-54
2022/08/03 13:23:45;;;;;;;4.85;2.45;;;;;;;;;;5046998;28;20052;-56
2022/08/03 13:26:11;;;;;;;5.70;2.65;;;;;;;;;;5047299;28;20433;-56
2022/08/03 13:28:38;;;;;;;6.60;2.80;;;;;;;;;;5046937;28;20580;-57
2022/08/03 13:31:04;;;;;;;4.90;2.50;;;;;;;;;;5045914;28;20382;-59
2022/08/03 13:33:30;;;;;;;3.17;1.98;;;;;;;;;;5030865;28;20045;-54
2022/08/03 13:35:57;;;;;;;5.75;2.03;;;;;;;;;;5041523;28;20067;-56